sensor_id;sensor_type;location;lat;lon;timestamp;temperature;humidity
45807;DHT22;31507;51.494;7.518;2023-07-02T00:02:23;16.40;99.90
45807;DHT22;31507;51.494;7.518;2023-07-02T00:04:48;16.40;99.90
45807;DHT22;31507;51.494;7.518;2023-07-02T00:07:14;16.40;99.90
45807;DHT22;31507;51.494;7.518;2023-07-02T00:09:40;16.40;99.90
45807;DHT22;31507;51.494;7.518;2023-07-02T00:12:06;16.40;99.90
45807;DHT22;31507;51.494;7.518;2023-07-02T00:14:32;16.40;99.90
45807;DHT22;31507;51.494;7.518;2023-07-02T00:16:58;16.40;99.90
45807;DHT22;31507;51.494;7.518;2023-07-02T00:19:24;16.40;99.90
45807;DHT22;31507;51.494;7.518;2023-07-02T00:21:50;16.40;99.90
45807;DHT22;31507;51.494;7.518;2023-07-02T00:24:15;16.40;99.90
45807;DHT22;31507;51.494;7.518;2023-07-02T00:26:41;16.40;99.90
45807;DHT22;31507;51.494;7.518;2023-07-02T00:29:07;16.40;99.90
45807;DHT22;31507;51.494;7.518;2023-07-02T00:31:34;16.40;99.90
45807;DHT22;31507;51.494;7.518;2023-07-02T00:34:00;16.40;99.90
45807;DHT22;31507;51.494;7.518;2023-07-02T00:36:27;16.40;99.90
45807;DHT22;31507;51.494;7.518;2023-07-02T00:38:52;16.30;99.90
45807;DHT22;31507;51.494;7.518;2023-07-02T00:41:18;16.30;99.90
45807;DHT22;31507;51.494;7.518;2023-07-02T00:43:44;16.30;99.90
45807;DHT22;31507;51.494;7.518;2023-07-02T00:46:16;16.30;99.90
45807;DHT22;31507;51.494;7.518;2023-07-02T00:48:44;16.30;99.90
45807;DHT22;31507;51.494;7.518;2023-07-02T00:51:13;16.30;99.90
45807;DHT22;31507;51.494;7.518;2023-07-02T00:53:40;16.30;99.90
45807;DHT22;31507;51.494;7.518;2023-07-02T00:56:05;16.30;99.90
45807;DHT22;31507;51.494;7.518;2023-07-02T00:58:34;16.30;99.90
45807;DHT22;31507;51.494;7.518;2023-07-02T01:01:02;16.30;99.90
45807;DHT22;31507;51.494;7.518;2023-07-02T01:03:28;16.30;99.90
45807;DHT22;31507;51.494;7.518;2023-07-02T01:05:54;16.30;99.90
45807;DHT22;31507;51.494;7.518;2023-07-02T01:08:20;16.20;99.90
45807;DHT22;31507;51.494;7.518;2023-07-02T01:10:46;16.30;99.90
45807;DHT22;31507;51.494;7.518;2023-07-02T01:13:15;16.30;99.90
45807;DHT22;31507;51.494;7.518;2023-07-02T01:15:42;16.30;99.90
45807;DHT22;31507;51.494;7.518;2023-07-02T01:18:10;16.20;99.90
45807;DHT22;31507;51.494;7.518;2023-07-02T01:20:37;16.20;99.90
45807;DHT22;31507;51.494;7.518;2023-07-02T01:23:04;16.20;99.90
45807;DHT22;31507;51.494;7.518;2023-07-02T01:25:30;16.20;99.90
45807;DHT22;31507;51.494;7.518;2023-07-02T01:27:55;16.20;99.90
45807;DHT22;31507;51.494;7.518;2023-07-02T01:30:24;16.20;99.90
45807;DHT22;31507;51.494;7.518;2023-07-02T01:32:50;16.20;99.90
45807;DHT22;31507;51.494;7.518;2023-07-02T01:35:15;16.20;99.90
45807;DHT22;31507;51.494;7.518;2023-07-02T01:37:41;16.20;99.90
45807;DHT22;31507;51.494;7.518;2023-07-02T01:40:07;16.10;99.90
45807;DHT22;31507;51.494;7.518;2023-07-02T01:42:36;16.10;99.90
45807;DHT22;31507;51.494;7.518;2023-07-02T01:45:02;16.00;99.90
45807;DHT22;31507;51.494;7.518;2023-07-02T01:47:27;15.90;99.90
45807;DHT22;31507;51.494;7.518;2023-07-02T01:49:53;15.90;99.90
45807;DHT22;31507;51.494;7.518;2023-07-02T01:52:19;15.80;99.90
45807;DHT22;31507;51.494;7.518;2023-07-02T01:54:45;15.80;99.90
45807;DHT22;31507;51.494;7.518;2023-07-02T01:57:11;15.70;99.90
45807;DHT22;31507;51.494;7.518;2023-07-02T01:59:37;15.70;99.90
45807;DHT22;31507;51.494;7.518;2023-07-02T02:02:02;15.70;99.90
45807;DHT22;31507;51.494;7.518;2023-07-02T02:04:28;15.60;99.90
45807;DHT22;31507;51.494;7.518;2023-07-02T02:06:54;15.60;99.90
45807;DHT22;31507;51.494;7.518;2023-07-02T02:09:19;15.60;99.90
45807;DHT22;31507;51.494;7.518;2023-07-02T02:11:49;15.60;99.90
45807;DHT22;31507;51.494;7.518;2023-07-02T02:14:15;15.50;99.90
45807;DHT22;31507;51.494;7.518;2023-07-02T02:16:41;15.50;99.90
45807;DHT22;31507;51.494;7.518;2023-07-02T02:19:11;15.60;99.90
45807;DHT22;31507;51.494;7.518;2023-07-02T02:21:36;15.60;99.90
45807;DHT22;31507;51.494;7.518;2023-07-02T02:24:02;15.60;99.90
45807;DHT22;31507;51.494;7.518;2023-07-02T02:26:27;15.70;99.90
45807;DHT22;31507;51.494;7.518;2023-07-02T02:28:53;15.70;99.90
45807;DHT22;31507;51.494;7.518;2023-07-02T02:31:19;15.70;99.90
45807;DHT22;31507;51.494;7.518;2023-07-02T02:33:45;15.70;99.90
45807;DHT22;31507;51.494;7.518;2023-07-02T02:36:10;15.60;99.90
45807;DHT22;31507;51.494;7.518;2023-07-02T02:38:36;15.60;99.90
45807;DHT22;31507;51.494;7.518;2023-07-02T02:41:03;15.60;99.90
45807;DHT22;31507;51.494;7.518;2023-07-02T02:43:29;15.60;99.90
45807;DHT22;31507;51.494;7.518;2023-07-02T02:45:54;15.60;99.90
45807;DHT22;31507;51.494;7.518;2023-07-02T02:48:20;15.60;99.90
45807;DHT22;31507;51.494;7.518;2023-07-02T02:50:48;15.60;99.90
45807;DHT22;31507;51.494;7.518;2023-07-02T02:53:14;15.50;99.90
45807;DHT22;31507;51.494;7.518;2023-07-02T02:55:39;15.50;99.90
45807;DHT22;31507;51.494;7.518;2023-07-02T02:58:05;15.60;99.90
45807;DHT22;31507;51.494;7.518;2023-07-02T03:00:31;15.60;99.90
45807;DHT22;31507;51.494;7.518;2023-07-02T03:02:56;15.60;99.90
45807;DHT22;31507;51.494;7.518;2023-07-02T03:05:22;15.60;99.90
45807;DHT22;31507;51.494;7.518;2023-07-02T03:07:49;15.60;99.90
45807;DHT22;31507;51.494;7.518;2023-07-02T03:10:14;15.60;99.90
45807;DHT22;31507;51.494;7.518;2023-07-02T03:12:40;15.60;99.90
45807;DHT22;31507;51.494;7.518;2023-07-02T03:15:06;15.60;99.90
45807;DHT22;31507;51.494;7.518;2023-07-02T03:17:32;15.60;99.90
45807;DHT22;31507;51.494;7.518;2023-07-02T03:19:58;15.60;99.90
45807;DHT22;31507;51.494;7.518;2023-07-02T03:22:24;15.60;99.90
45807;DHT22;31507;51.494;7.518;2023-07-02T03:24:49;15.60;99.90
45807;DHT22;31507;51.494;7.518;2023-07-02T03:27:15;15.60;99.90
45807;DHT22;31507;51.494;7.518;2023-07-02T03:29:40;15.60;99.90
45807;DHT22;31507;51.494;7.518;2023-07-02T03:32:06;15.60;99.90
45807;DHT22;31507;51.494;7.518;2023-07-02T03:34:32;15.60;99.90
45807;DHT22;31507;51.494;7.518;2023-07-02T03:36:58;15.60;99.90
45807;DHT22;31507;51.494;7.518;2023-07-02T03:39:23;15.60;99.90
45807;DHT22;31507;51.494;7.518;2023-07-02T03:41:49;15.60;99.90
45807;DHT22;31507;51.494;7.518;2023-07-02T03:44:15;15.60;99.90
45807;DHT22;31507;51.494;7.518;2023-07-02T03:46:40;15.60;99.90
45807;DHT22;31507;51.494;7.518;2023-07-02T03:49:06;15.60;99.90
45807;DHT22;31507;51.494;7.518;2023-07-02T03:51:32;15.60;99.90
45807;DHT22;31507;51.494;7.518;2023-07-02T03:54:00;15.60;99.90
45807;DHT22;31507;51.494;7.518;2023-07-02T03:56:26;15.60;99.90
45807;DHT22;31507;51.494;7.518;2023-07-02T03:58:52;15.60;99.90
45807;DHT22;31507;51.494;7.518;2023-07-02T04:01:18;15.60;99.90
45807;DHT22;31507;51.494;7.518;2023-07-02T04:03:52;15.60;99.90
45807;DHT22;31507;51.494;7.518;2023-07-02T04:06:35;15.60;99.90
45807;DHT22;31507;51.494;7.518;2023-07-02T04:09:01;15.60;99.90
45807;DHT22;31507;51.494;7.518;2023-07-02T04:11:26;15.60;99.90
45807;DHT22;31507;51.494;7.518;2023-07-02T04:13:52;15.60;99.90
45807;DHT22;31507;51.494;7.518;2023-07-02T04:16:17;15.60;99.90
45807;DHT22;31507;51.494;7.518;2023-07-02T04:18:43;15.60;99.90
45807;DHT22;31507;51.494;7.518;2023-07-02T04:21:09;15.60;99.90
45807;DHT22;31507;51.494;7.518;2023-07-02T04:23:34;15.60;99.90
45807;DHT22;31507;51.494;7.518;2023-07-02T04:26:00;15.60;99.90
45807;DHT22;31507;51.494;7.518;2023-07-02T04:28:25;15.60;99.90
45807;DHT22;31507;51.494;7.518;2023-07-02T04:30:51;15.70;99.90
45807;DHT22;31507;51.494;7.518;2023-07-02T04:33:18;15.70;99.90
45807;DHT22;31507;51.494;7.518;2023-07-02T04:35:44;15.80;99.90
45807;DHT22;31507;51.494;7.518;2023-07-02T04:38:09;15.70;99.90
45807;DHT22;31507;51.494;7.518;2023-07-02T04:40:35;15.70;99.90
45807;DHT22;31507;51.494;7.518;2023-07-02T04:43:01;15.80;99.90
45807;DHT22;31507;51.494;7.518;2023-07-02T04:45:29;15.70;99.90
45807;DHT22;31507;51.494;7.518;2023-07-02T04:47:57;15.70;99.90
45807;DHT22;31507;51.494;7.518;2023-07-02T04:50:23;15.60;99.90
45807;DHT22;31507;51.494;7.518;2023-07-02T04:52:49;15.60;99.90
45807;DHT22;31507;51.494;7.518;2023-07-02T04:55:14;15.60;99.90
45807;DHT22;31507;51.494;7.518;2023-07-02T04:57:40;15.60;99.90
45807;DHT22;31507;51.494;7.518;2023-07-02T05:00:06;15.60;99.90
45807;DHT22;31507;51.494;7.518;2023-07-02T05:02:33;15.70;99.90
45807;DHT22;31507;51.494;7.518;2023-07-02T05:04:59;15.70;99.90
45807;DHT22;31507;51.494;7.518;2023-07-02T05:07:24;15.70;99.90
45807;DHT22;31507;51.494;7.518;2023-07-02T05:09:50;15.70;99.90
45807;DHT22;31507;51.494;7.518;2023-07-02T05:12:18;15.70;99.90
45807;DHT22;31507;51.494;7.518;2023-07-02T05:14:44;15.70;99.90
45807;DHT22;31507;51.494;7.518;2023-07-02T05:17:10;15.70;99.90
45807;DHT22;31507;51.494;7.518;2023-07-02T05:19:36;15.70;99.90
45807;DHT22;31507;51.494;7.518;2023-07-02T05:22:01;15.70;99.90
45807;DHT22;31507;51.494;7.518;2023-07-02T05:24:27;15.70;99.90
45807;DHT22;31507;51.494;7.518;2023-07-02T05:26:52;15.90;99.90
45807;DHT22;31507;51.494;7.518;2023-07-02T05:29:19;16.00;99.90
45807;DHT22;31507;51.494;7.518;2023-07-02T05:31:44;16.00;99.90
45807;DHT22;31507;51.494;7.518;2023-07-02T05:34:10;16.00;99.90
45807;DHT22;31507;51.494;7.518;2023-07-02T05:36:35;16.10;99.90
45807;DHT22;31507;51.494;7.518;2023-07-02T05:39:01;16.10;99.90
45807;DHT22;31507;51.494;7.518;2023-07-02T05:41:27;16.10;99.90
45807;DHT22;31507;51.494;7.518;2023-07-02T05:43:57;16.10;99.90
45807;DHT22;31507;51.494;7.518;2023-07-02T05:46:23;16.30;99.90
45807;DHT22;31507;51.494;7.518;2023-07-02T05:48:49;16.40;99.90
45807;DHT22;31507;51.494;7.518;2023-07-02T05:51:20;16.50;99.90
45807;DHT22;31507;51.494;7.518;2023-07-02T05:53:46;16.60;99.90
45807;DHT22;31507;51.494;7.518;2023-07-02T05:56:11;16.90;99.90
45807;DHT22;31507;51.494;7.518;2023-07-02T05:58:37;16.90;99.90
45807;DHT22;31507;51.494;7.518;2023-07-02T06:01:02;16.90;99.90
45807;DHT22;31507;51.494;7.518;2023-07-02T06:03:30;17.00;99.90
45807;DHT22;31507;51.494;7.518;2023-07-02T06:05:56;17.00;99.90
45807;DHT22;31507;51.494;7.518;2023-07-02T06:08:21;16.80;99.90
45807;DHT22;31507;51.494;7.518;2023-07-02T06:10:47;16.80;99.90
45807;DHT22;31507;51.494;7.518;2023-07-02T06:13:13;16.80;99.90
45807;DHT22;31507;51.494;7.518;2023-07-02T06:15:39;16.80;99.90
45807;DHT22;31507;51.494;7.518;2023-07-02T06:18:05;16.70;99.90
45807;DHT22;31507;51.494;7.518;2023-07-02T06:20:31;16.60;99.90
45807;DHT22;31507;51.494;7.518;2023-07-02T06:22:56;16.60;99.90
45807;DHT22;31507;51.494;7.518;2023-07-02T06:25:22;16.70;99.90
45807;DHT22;31507;51.494;7.518;2023-07-02T06:27:48;16.70;99.90
45807;DHT22;31507;51.494;7.518;2023-07-02T06:30:14;16.80;99.90
45807;DHT22;31507;51.494;7.518;2023-07-02T06:32:39;17.00;99.90
45807;DHT22;31507;51.494;7.518;2023-07-02T06:35:05;17.10;99.90
45807;DHT22;31507;51.494;7.518;2023-07-02T06:37:32;17.30;99.90
45807;DHT22;31507;51.494;7.518;2023-07-02T06:39:58;17.40;99.90
45807;DHT22;31507;51.494;7.518;2023-07-02T06:42:24;17.50;99.90
45807;DHT22;31507;51.494;7.518;2023-07-02T06:44:50;17.60;99.90
45807;DHT22;31507;51.494;7.518;2023-07-02T06:47:16;17.80;99.90
45807;DHT22;31507;51.494;7.518;2023-07-02T06:49:41;17.90;99.90
45807;DHT22;31507;51.494;7.518;2023-07-02T06:52:07;18.50;99.90
45807;DHT22;31507;51.494;7.518;2023-07-02T06:54:33;19.00;99.90
45807;DHT22;31507;51.494;7.518;2023-07-02T06:56:59;18.50;99.90
45807;DHT22;31507;51.494;7.518;2023-07-02T06:59:25;18.80;99.90
45807;DHT22;31507;51.494;7.518;2023-07-02T07:01:50;19.00;99.90
45807;DHT22;31507;51.494;7.518;2023-07-02T07:04:16;19.00;99.90
45807;DHT22;31507;51.494;7.518;2023-07-02T07:06:42;19.40;99.90
45807;DHT22;31507;51.494;7.518;2023-07-02T07:09:08;20.00;99.90
45807;DHT22;31507;51.494;7.518;2023-07-02T07:11:34;20.60;99.90
45807;DHT22;31507;51.494;7.518;2023-07-02T07:14:00;20.20;99.90
45807;DHT22;31507;51.494;7.518;2023-07-02T07:16:25;20.20;99.90
45807;DHT22;31507;51.494;7.518;2023-07-02T07:18:51;20.50;99.90
45807;DHT22;31507;51.494;7.518;2023-07-02T07:21:17;20.30;99.90
45807;DHT22;31507;51.494;7.518;2023-07-02T07:23:42;20.10;99.90
45807;DHT22;31507;51.494;7.518;2023-07-02T07:26:08;19.40;99.90
45807;DHT22;31507;51.494;7.518;2023-07-02T07:28:33;19.50;99.90
45807;DHT22;31507;51.494;7.518;2023-07-02T07:30:59;19.80;99.90
45807;DHT22;31507;51.494;7.518;2023-07-02T07:33:25;19.80;99.90
45807;DHT22;31507;51.494;7.518;2023-07-02T07:35:50;19.40;99.90
45807;DHT22;31507;51.494;7.518;2023-07-02T07:38:16;19.60;99.90
45807;DHT22;31507;51.494;7.518;2023-07-02T07:40:43;19.60;99.90
45807;DHT22;31507;51.494;7.518;2023-07-02T07:43:09;19.60;99.90
45807;DHT22;31507;51.494;7.518;2023-07-02T07:45:34;19.30;99.90
45807;DHT22;31507;51.494;7.518;2023-07-02T07:48:00;19.20;99.90
45807;DHT22;31507;51.494;7.518;2023-07-02T07:50:26;19.50;97.70
45807;DHT22;31507;51.494;7.518;2023-07-02T07:52:52;19.60;97.00
45807;DHT22;31507;51.494;7.518;2023-07-02T07:55:18;19.50;95.30
45807;DHT22;31507;51.494;7.518;2023-07-02T07:57:43;19.50;94.70
45807;DHT22;31507;51.494;7.518;2023-07-02T08:00:09;19.50;93.00
45807;DHT22;31507;51.494;7.518;2023-07-02T08:02:35;19.30;91.50
45807;DHT22;31507;51.494;7.518;2023-07-02T08:05:01;19.40;92.60
45807;DHT22;31507;51.494;7.518;2023-07-02T08:07:27;19.30;91.40
45807;DHT22;31507;51.494;7.518;2023-07-02T08:09:53;19.20;90.00
45807;DHT22;31507;51.494;7.518;2023-07-02T08:12:19;19.30;90.60
45807;DHT22;31507;51.494;7.518;2023-07-02T08:14:44;19.40;90.70
45807;DHT22;31507;51.494;7.518;2023-07-02T08:17:10;19.60;90.90
45807;DHT22;31507;51.494;7.518;2023-07-02T08:19:35;19.70;87.60
45807;DHT22;31507;51.494;7.518;2023-07-02T08:22:03;19.90;88.00
45807;DHT22;31507;51.494;7.518;2023-07-02T08:24:29;19.80;88.40
45807;DHT22;31507;51.494;7.518;2023-07-02T08:26:57;19.80;87.80
45807;DHT22;31507;51.494;7.518;2023-07-02T08:29:23;19.40;87.30
45807;DHT22;31507;51.494;7.518;2023-07-02T08:31:49;19.00;89.20
45807;DHT22;31507;51.494;7.518;2023-07-02T08:34:14;18.80;90.70
45807;DHT22;31507;51.494;7.518;2023-07-02T08:36:40;18.70;90.60
45807;DHT22;31507;51.494;7.518;2023-07-02T08:39:09;18.50;90.60
45807;DHT22;31507;51.494;7.518;2023-07-02T08:41:45;18.50;91.40
45807;DHT22;31507;51.494;7.518;2023-07-02T08:44:11;18.70;91.20
45807;DHT22;31507;51.494;7.518;2023-07-02T08:46:39;19.00;90.80
45807;DHT22;31507;51.494;7.518;2023-07-02T08:49:07;19.40;90.70
45807;DHT22;31507;51.494;7.518;2023-07-02T08:51:32;19.60;90.50
45807;DHT22;31507;51.494;7.518;2023-07-02T08:53:58;19.60;90.20
45807;DHT22;31507;51.494;7.518;2023-07-02T08:56:24;19.30;89.50
45807;DHT22;31507;51.494;7.518;2023-07-02T08:58:49;19.20;88.70
45807;DHT22;31507;51.494;7.518;2023-07-02T09:01:15;19.20;87.40
45807;DHT22;31507;51.494;7.518;2023-07-02T09:03:41;19.10;87.00
45807;DHT22;31507;51.494;7.518;2023-07-02T09:06:11;19.10;86.30
45807;DHT22;31507;51.494;7.518;2023-07-02T09:08:36;18.90;85.30
45807;DHT22;31507;51.494;7.518;2023-07-02T09:11:13;18.90;86.10
45807;DHT22;31507;51.494;7.518;2023-07-02T09:13:49;18.80;84.40
45807;DHT22;31507;51.494;7.518;2023-07-02T09:16:31;18.60;83.40
45807;DHT22;31507;51.494;7.518;2023-07-02T09:19:03;19.00;82.60
45807;DHT22;31507;51.494;7.518;2023-07-02T09:21:38;19.40;84.00
45807;DHT22;31507;51.494;7.518;2023-07-02T09:24:16;19.90;82.80
45807;DHT22;31507;51.494;7.518;2023-07-02T09:26:50;20.90;82.70
45807;DHT22;31507;51.494;7.518;2023-07-02T09:31:48;20.80;76.80
45807;DHT22;31507;51.494;7.518;2023-07-02T09:34:14;20.60;76.10
45807;DHT22;31507;51.494;7.518;2023-07-02T09:36:40;20.30;75.70
45807;DHT22;31507;51.494;7.518;2023-07-02T09:39:19;20.10;74.60
45807;DHT22;31507;51.494;7.518;2023-07-02T09:41:49;20.60;76.40
45807;DHT22;31507;51.494;7.518;2023-07-02T09:44:15;21.00;73.30
45807;DHT22;31507;51.494;7.518;2023-07-02T09:46:48;21.10;73.20
45807;DHT22;31507;51.494;7.518;2023-07-02T09:49:16;21.10;70.50
45807;DHT22;31507;51.494;7.518;2023-07-02T09:51:43;20.90;70.90
45807;DHT22;31507;51.494;7.518;2023-07-02T09:54:10;21.00;73.10
45807;DHT22;31507;51.494;7.518;2023-07-02T09:56:36;20.80;72.40
45807;DHT22;31507;51.494;7.518;2023-07-02T09:59:02;20.90;71.20
45807;DHT22;31507;51.494;7.518;2023-07-02T10:01:27;20.90;70.40
45807;DHT22;31507;51.494;7.518;2023-07-02T10:03:53;21.10;69.20
45807;DHT22;31507;51.494;7.518;2023-07-02T10:06:19;21.50;68.50
45807;DHT22;31507;51.494;7.518;2023-07-02T10:08:57;21.70;67.70
45807;DHT22;31507;51.494;7.518;2023-07-02T10:11:33;21.50;65.60
45807;DHT22;31507;51.494;7.518;2023-07-02T10:14:02;21.50;67.00
45807;DHT22;31507;51.494;7.518;2023-07-02T10:16:28;21.90;65.30
45807;DHT22;31507;51.494;7.518;2023-07-02T10:18:54;22.00;64.30
45807;DHT22;31507;51.494;7.518;2023-07-02T10:21:20;22.10;65.30
45807;DHT22;31507;51.494;7.518;2023-07-02T10:23:45;22.60;65.70
45807;DHT22;31507;51.494;7.518;2023-07-02T10:26:16;23.00;65.50
45807;DHT22;31507;51.494;7.518;2023-07-02T10:28:42;22.70;63.90
45807;DHT22;31507;51.494;7.518;2023-07-02T10:31:20;22.10;67.20
45807;DHT22;31507;51.494;7.518;2023-07-02T10:33:46;21.30;65.90
45807;DHT22;31507;51.494;7.518;2023-07-02T10:36:19;20.80;67.80
45807;DHT22;31507;51.494;7.518;2023-07-02T10:38:46;20.50;69.90
45807;DHT22;31507;51.494;7.518;2023-07-02T10:41:12;20.30;70.40
45807;DHT22;31507;51.494;7.518;2023-07-02T10:43:38;20.10;70.30
45807;DHT22;31507;51.494;7.518;2023-07-02T10:46:03;20.40;70.90
45807;DHT22;31507;51.494;7.518;2023-07-02T10:48:30;20.50;70.60
45807;DHT22;31507;51.494;7.518;2023-07-02T10:50:56;20.40;70.70
45807;DHT22;31507;51.494;7.518;2023-07-02T10:53:22;20.50;71.30
45807;DHT22;31507;51.494;7.518;2023-07-02T10:55:55;20.40;71.70
45807;DHT22;31507;51.494;7.518;2023-07-02T10:58:21;20.40;71.90
45807;DHT22;31507;51.494;7.518;2023-07-02T11:00:48;20.90;72.10
45807;DHT22;31507;51.494;7.518;2023-07-02T11:05:47;21.90;67.10
45807;DHT22;31507;51.494;7.518;2023-07-02T11:08:13;22.30;67.60
45807;DHT22;31507;51.494;7.518;2023-07-02T11:10:39;21.60;67.50
45807;DHT22;31507;51.494;7.518;2023-07-02T11:13:18;21.10;69.60
45807;DHT22;31507;51.494;7.518;2023-07-02T11:15:45;21.30;69.30
45807;DHT22;31507;51.494;7.518;2023-07-02T11:18:15;21.50;68.80
45807;DHT22;31507;51.494;7.518;2023-07-02T11:20:43;21.20;69.00
45807;DHT22;31507;51.494;7.518;2023-07-02T11:23:22;21.20;68.10
45807;DHT22;31507;51.494;7.518;2023-07-02T11:25:56;21.20;67.30
45807;DHT22;31507;51.494;7.518;2023-07-02T11:28:23;21.50;67.20
45807;DHT22;31507;51.494;7.518;2023-07-02T11:30:48;22.00;67.30
45807;DHT22;31507;51.494;7.518;2023-07-02T11:33:14;21.70;65.90
45807;DHT22;31507;51.494;7.518;2023-07-02T11:35:40;21.60;67.00
45807;DHT22;31507;51.494;7.518;2023-07-02T11:38:06;21.30;66.30
45807;DHT22;31507;51.494;7.518;2023-07-02T11:40:32;20.90;66.40
45807;DHT22;31507;51.494;7.518;2023-07-02T11:42:57;20.60;67.10
45807;DHT22;31507;51.494;7.518;2023-07-02T11:45:23;20.70;66.60
45807;DHT22;31507;51.494;7.518;2023-07-02T11:47:49;21.10;66.50
45807;DHT22;31507;51.494;7.518;2023-07-02T11:50:14;21.10;66.50
45807;DHT22;31507;51.494;7.518;2023-07-02T11:52:40;21.50;65.50
45807;DHT22;31507;51.494;7.518;2023-07-02T11:55:06;21.90;65.50
45807;DHT22;31507;51.494;7.518;2023-07-02T11:57:31;22.20;64.90
45807;DHT22;31507;51.494;7.518;2023-07-02T11:59:57;22.10;63.30
45807;DHT22;31507;51.494;7.518;2023-07-02T12:02:23;21.90;64.70
45807;DHT22;31507;51.494;7.518;2023-07-02T12:04:49;21.90;64.00
45807;DHT22;31507;51.494;7.518;2023-07-02T12:07:14;21.90;64.30
45807;DHT22;31507;51.494;7.518;2023-07-02T12:09:40;21.70;64.40
45807;DHT22;31507;51.494;7.518;2023-07-02T12:12:10;21.50;65.00
45807;DHT22;31507;51.494;7.518;2023-07-02T12:14:36;21.40;65.00
45807;DHT22;31507;51.494;7.518;2023-07-02T12:17:03;21.30;64.00
45807;DHT22;31507;51.494;7.518;2023-07-02T12:19:29;21.60;65.40
45807;DHT22;31507;51.494;7.518;2023-07-02T12:21:55;22.30;64.40
45807;DHT22;31507;51.494;7.518;2023-07-02T12:24:21;23.00;63.70
45807;DHT22;31507;51.494;7.518;2023-07-02T12:26:46;23.40;62.80
45807;DHT22;31507;51.494;7.518;2023-07-02T12:29:12;23.20;61.10
45807;DHT22;31507;51.494;7.518;2023-07-02T12:31:37;23.70;62.10
45807;DHT22;31507;51.494;7.518;2023-07-02T12:34:03;23.70;61.10
45807;DHT22;31507;51.494;7.518;2023-07-02T12:36:29;23.10;60.60
45807;DHT22;31507;51.494;7.518;2023-07-02T12:38:54;22.40;60.90
45807;DHT22;31507;51.494;7.518;2023-07-02T12:41:20;22.00;60.00
45807;DHT22;31507;51.494;7.518;2023-07-02T12:43:45;22.00;61.70
45807;DHT22;31507;51.494;7.518;2023-07-02T12:46:11;22.20;61.30
45807;DHT22;31507;51.494;7.518;2023-07-02T12:48:37;23.00;62.60
45807;DHT22;31507;51.494;7.518;2023-07-02T12:51:03;22.70;60.30
45807;DHT22;31507;51.494;7.518;2023-07-02T12:53:28;22.70;61.00
45807;DHT22;31507;51.494;7.518;2023-07-02T12:55:54;22.40;59.60
45807;DHT22;31507;51.494;7.518;2023-07-02T12:58:22;21.90;60.40
45807;DHT22;31507;51.494;7.518;2023-07-02T13:00:48;21.70;60.80
45807;DHT22;31507;51.494;7.518;2023-07-02T13:03:17;21.60;61.00
45807;DHT22;31507;51.494;7.518;2023-07-02T13:05:43;21.60;61.10
45807;DHT22;31507;51.494;7.518;2023-07-02T13:08:10;21.70;60.50
45807;DHT22;31507;51.494;7.518;2023-07-02T13:10:35;21.50;59.30
45807;DHT22;31507;51.494;7.518;2023-07-02T13:13:01;21.50;60.60
45807;DHT22;31507;51.494;7.518;2023-07-02T13:15:27;21.50;60.60
45807;DHT22;31507;51.494;7.518;2023-07-02T13:17:52;22.00;60.00
45807;DHT22;31507;51.494;7.518;2023-07-02T13:20:18;22.80;60.20
45807;DHT22;31507;51.494;7.518;2023-07-02T13:22:44;23.30;58.40
45807;DHT22;31507;51.494;7.518;2023-07-02T13:25:09;23.50;58.10
45807;DHT22;31507;51.494;7.518;2023-07-02T13:27:35;23.80;58.60
45807;DHT22;31507;51.494;7.518;2023-07-02T13:30:01;24.10;56.80
45807;DHT22;31507;51.494;7.518;2023-07-02T13:32:27;23.80;56.20
45807;DHT22;31507;51.494;7.518;2023-07-02T13:34:53;23.80;56.60
45807;DHT22;31507;51.494;7.518;2023-07-02T13:37:19;23.60;56.60
45807;DHT22;31507;51.494;7.518;2023-07-02T13:39:48;23.80;57.30
45807;DHT22;31507;51.494;7.518;2023-07-02T13:42:15;23.80;58.00
45807;DHT22;31507;51.494;7.518;2023-07-02T13:44:41;23.10;57.40
45807;DHT22;31507;51.494;7.518;2023-07-02T13:47:07;22.80;58.20
45807;DHT22;31507;51.494;7.518;2023-07-02T13:49:33;22.90;58.20
45807;DHT22;31507;51.494;7.518;2023-07-02T13:51:59;23.40;57.80
45807;DHT22;31507;51.494;7.518;2023-07-02T13:54:25;23.70;58.10
45807;DHT22;31507;51.494;7.518;2023-07-02T13:56:52;24.10;57.60
45807;DHT22;31507;51.494;7.518;2023-07-02T13:59:19;24.10;56.90
45807;DHT22;31507;51.494;7.518;2023-07-02T14:01:46;24.10;57.80
45807;DHT22;31507;51.494;7.518;2023-07-02T14:04:13;24.20;57.40
45807;DHT22;31507;51.494;7.518;2023-07-02T14:06:39;23.90;56.80
45807;DHT22;31507;51.494;7.518;2023-07-02T14:09:05;23.60;57.50
45807;DHT22;31507;51.494;7.518;2023-07-02T14:11:33;23.80;57.70
45807;DHT22;31507;51.494;7.518;2023-07-02T14:13:59;23.60;58.00
45807;DHT22;31507;51.494;7.518;2023-07-02T14:16:25;23.30;58.40
45807;DHT22;31507;51.494;7.518;2023-07-02T14:18:51;23.50;59.20
45807;DHT22;31507;51.494;7.518;2023-07-02T14:21:17;23.70;58.50
45807;DHT22;31507;51.494;7.518;2023-07-02T14:23:43;24.10;58.90
45807;DHT22;31507;51.494;7.518;2023-07-02T14:26:09;24.10;58.80
45807;DHT22;31507;51.494;7.518;2023-07-02T14:28:35;24.10;58.60
45807;DHT22;31507;51.494;7.518;2023-07-02T14:31:02;24.10;58.90
45807;DHT22;31507;51.494;7.518;2023-07-02T14:33:30;23.70;59.40
45807;DHT22;31507;51.494;7.518;2023-07-02T14:35:56;23.60;59.80
45807;DHT22;31507;51.494;7.518;2023-07-02T14:38:22;23.60;59.70
45807;DHT22;31507;51.494;7.518;2023-07-02T14:40:49;23.50;59.10
45807;DHT22;31507;51.494;7.518;2023-07-02T14:43:15;22.90;60.20
45807;DHT22;31507;51.494;7.518;2023-07-02T14:45:59;22.30;60.40
45807;DHT22;31507;51.494;7.518;2023-07-02T14:48:25;22.40;61.80
45807;DHT22;31507;51.494;7.518;2023-07-02T14:50:59;22.50;61.40
45807;DHT22;31507;51.494;7.518;2023-07-02T14:53:26;22.20;62.00
45807;DHT22;31507;51.494;7.518;2023-07-02T14:55:54;22.50;62.20
45807;DHT22;31507;51.494;7.518;2023-07-02T14:58:20;22.80;61.30
45807;DHT22;31507;51.494;7.518;2023-07-02T15:00:47;22.90;62.00
45807;DHT22;31507;51.494;7.518;2023-07-02T15:03:13;23.30;61.60
45807;DHT22;31507;51.494;7.518;2023-07-02T15:05:50;23.30;60.50
45807;DHT22;31507;51.494;7.518;2023-07-02T15:08:17;23.20;61.00
45807;DHT22;31507;51.494;7.518;2023-07-02T15:10:48;22.80;61.90
45807;DHT22;31507;51.494;7.518;2023-07-02T15:13:14;22.70;63.20
45807;DHT22;31507;51.494;7.518;2023-07-02T15:15:40;23.30;62.10
45807;DHT22;31507;51.494;7.518;2023-07-02T15:18:06;23.20;60.70
45807;DHT22;31507;51.494;7.518;2023-07-02T15:20:35;22.80;62.50
45807;DHT22;31507;51.494;7.518;2023-07-02T15:23:01;22.10;62.40
45807;DHT22;31507;51.494;7.518;2023-07-02T15:25:27;21.90;63.50
45807;DHT22;31507;51.494;7.518;2023-07-02T15:27:53;21.90;64.00
45807;DHT22;31507;51.494;7.518;2023-07-02T15:30:18;22.30;64.20
45807;DHT22;31507;51.494;7.518;2023-07-02T15:32:44;22.50;62.80